Time;durP1;ratioP1;P1;durP2;ratioP2;P2;SDS_P1;SDS_P2;PMS_P1;PMS_P2;Temp;Humidity;BMP_temperature;BMP_pressure;BME280_temperature;BME280_humidity;BME280_pressure;Samples;Min_cycle;Max_cycle;Signal;HPM_P1;HPM_P2
2023/03/03 00:02:10;;;;;;;40.90;16.93;;;;;3.60;96314.00;;;;8435376;28;20735;-82
2023/03/03 00:06:18;;;;;;;51.37;19.97;;;;;3.60;96318.00;;;;8435978;28;20203;-83
2023/03/03 00:10:21;;;;;;;55.10;21.87;;;;;3.60;96325.00;;;;8435386;28;20576;-82
2023/03/03 00:14:28;;;;;;;43.10;18.77;;;;;3.40;96329.00;;;;8435519;28;20197;-82
2023/03/03 00:18:37;;;;;;;41.50;18.00;;;;;3.30;96321.00;;;;8435804;28;20205;-80
2023/03/03 00:22:45;;;;;;;43.63;18.90;;;;;3.10;96329.00;;;;8435177;28;20190;-82
2023/03/03 00:26:53;;;;;;;52.03;19.20;;;;;2.90;96321.00;;;;8432492;28;20650;-83
2023/03/03 00:30:57;;;;;;;50.40;20.10;;;;;2.90;96333.00;;;;8435498;28;20704;-83
2023/03/03 00:35:17;;;;;;;46.63;20.90;;;;;2.80;96322.00;;;;8416868;28;20194;-84
2023/03/03 00:39:41;;;;;;;45.40;19.17;;;;;2.80;96318.00;;;;8434138;28;20280;-84
2023/03/03 00:43:50;;;;;;;47.10;19.07;;;;;2.80;96326.00;;;;8432248;28;20240;-84
2023/03/03 00:47:54;;;;;;;48.73;20.73;;;;;2.90;96324.00;;;;8434787;28;20181;-84
2023/03/03 00:51:59;;;;;;;44.87;18.83;;;;;2.90;96322.00;;;;8432808;28;20316;-84
2023/03/03 00:56:05;;;;;;;46.70;18.43;;;;;2.90;96325.00;;;;8432231;28;20199;-83
2023/03/03 01:00:13;;;;;;;47.77;19.27;;;;;2.70;96324.00;;;;8415436;28;20198;-86
2023/03/03 01:04:17;;;;;;;45.60;17.70;;;;;2.60;96323.00;;;;8433523;28;20224;-87
2023/03/03 01:08:23;;;;;;;49.10;19.70;;;;;2.50;96321.00;;;;8429102;28;20194;-85
2023/03/03 01:12:32;;;;;;;47.03;18.17;;;;;2.30;96315.00;;;;8433878;28;20685;-85
2023/03/03 01:16:35;;;;;;;48.93;19.57;;;;;2.30;96320.00;;;;8415064;28;20195;-85
2023/03/03 01:20:41;;;;;;;41.20;17.93;;;;;2.10;96318.00;;;;8433391;28;20225;-85
2023/03/03 01:24:45;;;;;;;52.60;19.93;;;;;2.00;96306.00;;;;8431783;28;20197;-85
2023/03/03 01:28:51;;;;;;;50.00;20.17;;;;;2.00;96320.00;;;;8434320;28;20260;-84
2023/03/03 01:32:56;;;;;;;53.60;19.73;;;;;2.00;96315.00;;;;8432277;28;20230;-82
2023/03/03 01:36:59;;;;;;;44.33;19.07;;;;;2.00;96316.00;;;;8431843;28;20231;-80
2023/03/03 01:41:04;;;;;;;51.80;19.30;;;;;2.00;96305.00;;;;8414420;28;20191;-80
2023/03/03 01:45:28;;;;;;;42.67;17.93;;;;;2.00;96308.00;;;;8432712;28;20195;-79
2023/03/03 01:49:36;;;;;;;53.57;18.83;;;;;2.10;96299.00;;;;8432291;28;20602;-78
2023/03/03 01:53:43;;;;;;;46.57;17.83;;;;;2.00;96309.00;;;;8431862;28;20210;-77
2023/03/03 01:57:53;;;;;;;49.37;18.80;;;;;2.00;96308.00;;;;8431834;28;20188;-77
2023/03/03 02:02:02;;;;;;;47.97;18.43;;;;;2.00;96309.00;;;;8431544;28;20295;-77
2023/03/03 02:06:09;;;;;;;45.13;18.23;;;;;2.10;96316.00;;;;8432066;28;20282;-77
2023/03/03 02:10:14;;;;;;;43.17;18.23;;;;;2.20;96305.00;;;;8431291;28;20252;-75
2023/03/03 02:14:18;;;;;;;48.10;17.07;;;;;2.20;96307.00;;;;8431844;28;20196;-74
2023/03/03 02:18:23;;;;;;;43.00;17.40;;;;;2.10;96309.00;;;;8430975;28;20188;-74
2023/03/03 02:22:34;;;;;;;47.43;18.83;;;;;2.00;96311.00;;;;8413535;28;20233;-74
2023/03/03 02:26:40;;;;;;;47.17;18.17;;;;;1.90;96309.00;;;;8430181;28;20583;-73
2023/03/03 02:30:46;;;;;;;44.63;17.83;;;;;2.00;96313.00;;;;8431260;28;20223;-74
2023/03/03 02:34:53;;;;;;;43.50;18.43;;;;;2.00;96313.00;;;;8431473;28;20812;-73
2023/03/03 02:39:03;;;;;;;43.80;18.60;;;;;2.10;96302.00;;;;8431734;28;20195;-73
2023/03/03 02:43:11;;;;;;;43.73;17.17;;;;;2.30;96309.00;;;;8430254;28;20203;-73
2023/03/03 02:47:15;;;;;;;42.10;16.63;;;;;2.40;96313.00;;;;8430952;28;20298;-73
2023/03/03 02:51:20;;;;;;;41.20;16.47;;;;;2.50;96312.00;;;;8435420;28;20223;-73
2023/03/03 02:55:23;;;;;;;42.27;17.70;;;;;2.50;96311.00;;;;8438087;28;20688;-73
2023/03/03 02:59:31;;;;;;;44.57;18.37;;;;;2.40;96311.00;;;;8437586;28;20232;-73
2023/03/03 03:03:39;;;;;;;37.83;16.90;;;;;2.40;96314.00;;;;8428688;22;20292;-73
2023/03/03 03:07:42;;;;;;;39.57;17.40;;;;;2.40;96310.00;;;;8407419;28;20195;-73
2023/03/03 03:11:45;;;;;;;38.57;16.90;;;;;2.40;96311.00;;;;8410568;28;20276;-73
2023/03/03 03:15:50;;;;;;;39.97;18.07;;;;;2.30;96310.00;;;;8400622;28;20646;-73
2023/03/03 03:19:53;;;;;;;39.47;16.70;;;;;2.30;96306.00;;;;8411090;28;20203;-73
2023/03/03 03:23:56;;;;;;;41.73;17.87;;;;;2.20;96309.00;;;;8419053;28;20189;-74
2023/03/03 03:28:00;;;;;;;39.30;16.87;;;;;2.10;96306.00;;;;8417544;28;20209;-74
2023/03/03 03:32:07;;;;;;;38.70;16.33;;;;;2.10;96306.00;;;;8413172;28;20221;-75
2023/03/03 03:36:11;;;;;;;39.13;16.43;;;;;2.20;96310.00;;;;8411567;28;20882;-74
2023/03/03 03:40:28;;;;;;;36.63;14.67;;;;;2.20;96302.00;;;;8416700;28;20250;-75
2023/03/03 03:44:34;;;;;;;40.03;16.17;;;;;2.20;96302.00;;;;8388620;28;20824;-76
2023/03/03 03:48:38;;;;;;;38.37;15.90;;;;;2.10;96303.00;;;;8410268;28;20200;-76
2023/03/03 03:52:51;;;;;;;42.17;16.40;;;;;2.00;96299.00;;;;8403466;28;20220;-74
2023/03/03 03:56:56;;;;;;;36.03;15.97;;;;;1.90;96299.00;;;;8407418;28;20201;-75
2023/03/03 04:01:04;;;;;;;41.07;16.67;;;;;1.70;96307.00;;;;8402771;28;20709;-74
2023/03/03 04:05:13;;;;;;;42.27;16.83;;;;;1.60;96311.00;;;;8377294;28;20260;-74
2023/03/03 04:09:17;;;;;;;40.63;16.33;;;;;1.50;96315.00;;;;8355978;28;20276;-75
2023/03/03 04:13:20;;;;;;;36.07;16.57;;;;;1.40;96318.00;;;;8366637;28;20196;-75
2023/03/03 04:17:24;;;;;;;38.17;16.33;;;;;1.40;96314.00;;;;8378785;28;20225;-74
2023/03/03 04:21:29;;;;;;;41.20;17.07;;;;;1.40;96318.00;;;;8374575;28;20232;-74
2023/03/03 04:25:32;;;;;;;42.03;15.97;;;;;1.30;96314.00;;;;8370522;28;20698;-74
2023/03/03 04:29:37;;;;;;;42.83;16.03;;;;;1.20;96316.00;;;;8386214;28;20254;-75
2023/03/03 04:33:42;;;;;;;43.97;16.90;;;;;1.10;96318.00;;;;8373094;28;20241;-74
2023/03/03 04:37:49;;;;;;;44.40;16.37;;;;;1.00;96314.00;;;;8384976;28;20201;-74
2023/03/03 04:41:52;;;;;;;39.07;16.40;;;;;1.00;96322.00;;;;8368376;28;20199;-75
2023/03/03 04:45:58;;;;;;;41.80;16.20;;;;;1.00;96323.00;;;;8380026;28;20204;-75
2023/03/03 04:50:05;;;;;;;45.57;16.73;;;;;1.00;96325.00;;;;8367798;28;20263;-75
2023/03/03 04:54:13;;;;;;;38.87;14.93;;;;;1.10;96326.00;;;;8371442;28;20283;-76
2023/03/03 04:58:16;;;;;;;42.13;17.20;;;;;1.20;96341.00;;;;8369408;28;20198;-76
2023/03/03 05:02:22;;;;;;;42.23;15.57;;;;;1.40;96336.00;;;;8373638;28;20572;-76
2023/03/03 05:06:30;;;;;;;38.83;15.83;;;;;1.40;96338.00;;;;8359669;28;20521;-73
2023/03/03 05:10:34;;;;;;;41.00;15.90;;;;;1.40;96338.00;;;;8364307;28;20627;-75
2023/03/03 05:14:38;;;;;;;35.03;15.43;;;;;1.40;96334.00;;;;8365578;28;20200;-73
2023/03/03 05:18:41;;;;;;;36.40;16.13;;;;;1.40;96339.00;;;;8376796;28;20211;-71
2023/03/03 05:22:44;;;;;;;39.30;16.33;;;;;1.30;96349.00;;;;8378721;28;21012;-75
2023/03/03 05:26:48;;;;;;;36.90;16.17;;;;;1.20;96354.00;;;;8371935;28;20204;-73
2023/03/03 05:30:52;;;;;;;37.27;15.40;;;;;1.20;96347.00;;;;8375581;28;20220;-73
2023/03/03 05:34:58;;;;;;;38.97;15.60;;;;;1.30;96346.00;;;;8373604;28;20198;-73
2023/03/03 05:39:01;;;;;;;45.70;16.40;;;;;1.30;96348.00;;;;8371639;28;20209;-72
2023/03/03 05:43:07;;;;;;;42.33;16.20;;;;;1.50;96347.00;;;;8375396;28;20193;-71
2023/03/03 05:47:13;;;;;;;38.50;15.37;;;;;1.60;96343.00;;;;8367917;28;20730;-74
2023/03/03 05:51:19;;;;;;;38.83;15.67;;;;;1.60;96356.00;;;;8366019;28;20283;-77
2023/03/03 05:55:25;;;;;;;35.20;15.60;;;;;1.60;96362.00;;;;8371221;28;20262;-77
2023/03/03 05:59:31;;;;;;;38.43;14.53;;;;;1.60;96366.00;;;;8368080;28;20278;-76
2023/03/03 06:03:34;;;;;;;40.57;16.60;;;;;1.50;96371.00;;;;8367058;28;20287;-77
2023/03/03 06:07:38;;;;;;;40.47;16.30;;;;;1.60;96372.00;;;;8364561;28;20204;-77
2023/03/03 06:11:42;;;;;;;40.43;16.03;;;;;1.60;96367.00;;;;8365189;28;20616;-77
2023/03/03 06:15:47;;;;;;;41.87;17.37;;;;;1.60;96376.00;;;;8364595;28;20223;-76
2023/03/03 06:19:51;;;;;;;40.60;16.63;;;;;1.60;96380.00;;;;8371847;28;20250;-79
2023/03/03 06:23:54;;;;;;;37.93;15.87;;;;;1.60;96385.00;;;;8367177;28;20209;-79
2023/03/03 06:28:00;;;;;;;38.30;15.53;;;;;1.50;96386.00;;;;8371841;28;20246;-79
2023/03/03 06:32:04;;;;;;;40.97;17.10;;;;;1.50;96396.00;;;;8366238;28;20232;-80
2023/03/03 06:36:08;;;;;;;43.17;17.50;;;;;1.60;96387.00;;;;8371294;28;20196;-81
2023/03/03 06:40:16;;;;;;;45.73;19.00;;;;;1.60;96391.00;;;;8371806;28;20267;-83
2023/03/03 06:44:23;;;;;;;41.10;16.53;;;;;1.60;96401.00;;;;8365089;28;20677;-77
2023/03/03 06:48:30;;;;;;;41.97;16.83;;;;;1.60;96408.00;;;;8370633;28;20708;-76
2023/03/03 06:52:33;;;;;;;43.67;15.90;;;;;1.70;96413.00;;;;8372321;28;20226;-76
2023/03/03 06:56:43;;;;;;;38.63;16.37;;;;;1.80;96416.00;;;;8369772;28;20251;-78
2023/03/03 07:00:54;;;;;;;38.50;15.50;;;;;1.80;96415.00;;;;8369743;28;20200;-77
2023/03/03 07:05:01;;;;;;;38.90;16.03;;;;;2.00;96417.00;;;;8365377;28;20288;-78
2023/03/03 07:09:10;;;;;;;39.73;16.67;;;;;2.20;96419.00;;;;8369084;28;20202;-75
2023/03/03 07:13:21;;;;;;;36.47;15.87;;;;;2.30;96422.00;;;;8357581;28;20220;-77
2023/03/03 07:17:27;;;;;;;37.57;15.77;;;;;2.50;96430.00;;;;8376012;28;20764;-75
2023/03/03 07:21:39;;;;;;;37.00;15.07;;;;;2.70;96434.00;;;;8358390;28;20290;-77
2023/03/03 07:25:54;;;;;;;38.50;15.23;;;;;2.80;96435.00;;;;8363185;28;20223;-76
2023/03/03 07:30:17;;;;;;;35.13;15.27;;;;;3.10;96439.00;;;;8367826;28;20534;-77
2023/03/03 07:34:22;;;;;;;40.40;16.20;;;;;3.30;96440.00;;;;8364417;28;20264;-75
2023/03/03 07:38:35;;;;;;;38.00;15.27;;;;;3.40;96445.00;;;;8402389;28;20204;-76
2023/03/03 07:42:43;;;;;;;34.73;15.20;;;;;3.60;96437.00;;;;8402972;28;20683;-76
2023/03/03 07:46:49;;;;;;;34.60;14.37;;;;;3.70;96443.00;;;;8384711;28;20351;-76
2023/03/03 07:50:56;;;;;;;38.33;15.10;;;;;3.80;96450.00;;;;8401334;28;20245;-76
2023/03/03 07:55:18;;;;;;;39.73;17.13;;;;;3.90;96463.00;;;;8400550;28;20715;-76
2023/03/03 07:59:24;;;;;;;39.60;15.17;;;;;4.00;96455.00;;;;8398756;28;20187;-77
2023/03/03 08:03:27;;;;;;;36.43;15.10;;;;;4.10;96465.00;;;;8401261;28;20665;-76
2023/03/03 08:07:31;;;;;;;34.63;15.13;;;;;4.20;96460.00;;;;8401688;28;20208;-76
2023/03/03 08:11:47;;;;;;;38.27;16.27;;;;;4.30;96471.00;;;;8401329;28;20221;-75
2023/03/03 08:15:52;;;;;;;41.43;15.27;;;;;4.40;96461.00;;;;8401497;28;20283;-74
2023/03/03 08:19:58;;;;;;;35.60;14.67;;;;;4.60;96460.00;;;;8401031;28;20235;-74
2023/03/03 08:24:01;;;;;;;35.97;15.57;;;;;4.60;96472.00;;;;8401233;28;20199;-74
2023/03/03 08:28:14;;;;;;;39.73;16.37;;;;;4.60;96469.00;;;;8401393;28;20601;-74
2023/03/03 08:32:17;;;;;;;38.30;14.73;;;;;4.70;96479.00;;;;8401112;28;20279;-73
2023/03/03 08:36:20;;;;;;;35.10;15.87;;;;;4.90;96483.00;;;;8400956;28;20560;-72
2023/03/03 08:40:23;;;;;;;36.60;15.20;;;;;5.00;96490.00;;;;8399989;28;20243;-72
2023/03/03 08:44:29;;;;;;;35.80;14.50;;;;;4.90;96492.00;;;;8399989;28;20203;-72
2023/03/03 08:48:33;;;;;;;34.97;13.63;;;;;4.90;96484.00;;;;8397252;28;20195;-72
2023/03/03 08:52:38;;;;;;;36.20;15.77;;;;;5.00;96503.00;;;;8398867;28;20223;-72
2023/03/03 08:56:41;;;;;;;30.73;13.00;;;;;5.10;96507.00;;;;8399550;28;20294;-74
2023/03/03 09:00:46;;;;;;;39.43;15.63;;;;;5.10;96503.00;;;;8400096;28;20203;-74
2023/03/03 09:04:52;;;;;;;36.90;17.27;;;;;5.20;96504.00;;;;8399323;28;20195;-71
2023/03/03 09:08:56;;;;;;;31.43;13.63;;;;;5.30;96509.00;;;;8400354;28;20684;-71
2023/03/03 09:13:04;;;;;;;38.47;16.20;;;;;5.20;96512.00;;;;8399801;28;20219;-71
2023/03/03 09:17:22;;;;;;;39.83;17.87;;;;;5.30;96517.00;;;;8399455;28;20207;-70
2023/03/03 09:21:34;;;;;;;38.07;16.03;;;;;5.30;96519.00;;;;8399049;28;20591;-70
2023/03/03 09:25:37;;;;;;;38.87;15.57;;;;;5.30;96522.00;;;;8394618;28;20203;-70
2023/03/03 09:29:44;;;;;;;33.70;16.00;;;;;5.30;96522.00;;;;8398560;28;20636;-70
2023/03/03 09:33:50;;;;;;;41.00;16.13;;;;;5.30;96522.00;;;;8398728;28;20562;-71
2023/03/03 09:37:54;;;;;;;44.33;17.73;;;;;5.40;96519.00;;;;8399046;28;20227;-71
2023/03/03 09:42:31;;;;;;;41.13;17.57;;;;;5.50;96519.00;;;;8398290;28;20351;-71
2023/03/03 09:46:47;;;;;;;38.97;16.30;;;;;5.60;96516.00;;;;8398886;28;20195;-70
2023/03/03 09:51:08;;;;;;;35.97;17.23;;;;;5.80;96524.00;;;;8398135;28;20188;-70
2023/03/03 09:55:36;;;;;;;46.37;18.00;;;;;6.10;96533.00;;;;8398124;28;20285;-70
2023/03/03 10:00:04;;;;;;;36.83;17.20;;;;;6.30;96537.00;;;;8397417;28;20183;-68
2023/03/03 10:04:24;;;;;;;42.83;17.57;;;;;6.60;96529.00;;;;8396327;28;20239;-69
2023/03/03 10:08:49;;;;;;;39.17;17.20;;;;;6.90;96524.00;;;;8399709;28;20284;-68
2023/03/03 10:13:03;;;;;;;38.23;17.47;;;;;7.30;96530.00;;;;8397685;28;20215;-69
2023/03/03 10:17:21;;;;;;;42.33;17.80;;;;;7.50;96530.00;;;;8397436;28;20640;-69
2023/03/03 10:21:29;;;;;;;35.77;16.50;;;;;7.80;96540.00;;;;8396396;28;20187;-69
2023/03/03 10:25:41;;;;;;;42.40;18.00;;;;;7.80;96551.00;;;;8397885;28;20267;-69
2023/03/03 10:29:58;;;;;;;42.92;21.05;;;;;7.80;96546.00;;;;8395514;28;20505;-69
2023/03/03 10:34:19;;;;;;;41.63;17.50;;;;;8.30;96553.00;;;;8397168;28;20490;-69
2023/03/03 10:38:38;;;;;;;43.20;21.20;;;;;8.60;96547.00;;;;8395518;28;20502;-69
2023/03/03 10:43:24;;;;;;;40.30;20.27;;;;;9.40;96551.00;;;;8394982;28;20748;-69
2023/03/03 10:48:01;;;;;;;34.90;17.83;;;;;10.20;96540.00;;;;8397843;28;20525;-69
2023/03/03 10:52:30;;;;;;;33.43;17.10;;;;;11.00;96543.00;;;;8395816;28;20507;-69
2023/03/03 10:56:43;;;;;;;35.33;16.63;;;;;11.20;96545.00;;;;8396401;28;20192;-70
2023/03/03 11:01:06;;;;;;;35.80;17.48;;;;;11.30;96548.00;;;;8397214;28;20183;-70
2023/03/03 11:05:18;;;;;;;35.60;17.80;;;;;11.00;96547.00;;;;8397409;28;20629;-70
2023/03/03 11:09:37;;;;;;;42.50;18.50;;;;;10.70;96532.00;;;;8396318;28;20188;-70
2023/03/03 11:13:48;;;;;;;39.28;18.05;;;;;10.60;96529.00;;;;8403296;28;20665;-70
2023/03/03 11:18:13;;;;;;;37.42;17.27;;;;;10.40;96534.00;;;;8403195;28;20185;-70
2023/03/03 11:22:35;;;;;;;36.97;16.87;;;;;10.00;96539.00;;;;8404042;28;20648;-70
2023/03/03 11:26:54;;;;;;;38.42;17.88;;;;;9.80;96537.00;;;;8403134;28;20203;-70
2023/03/03 11:31:13;;;;;;;38.03;16.65;;;;;9.80;96531.00;;;;8401849;28;20234;-71
2023/03/03 11:35:39;;;;;;;37.60;17.70;;;;;9.90;96536.00;;;;8402030;28;20223;-70
2023/03/03 11:39:44;;;;;;;37.13;17.13;;;;;9.80;96530.00;;;;8401285;28;20664;-71
2023/03/03 11:43:56;;;;;;;35.93;17.27;;;;;10.00;96529.00;;;;8401760;28;20226;-71
2023/03/03 11:48:06;;;;;;;43.05;17.02;;;;;10.30;96521.00;;;;8402843;28;20203;-71
2023/03/03 11:52:25;;;;;;;32.60;16.48;;;;;10.40;96519.00;;;;8383595;28;20191;-70
2023/03/03 11:56:33;;;;;;;40.75;16.85;;;;;10.70;96505.00;;;;8401882;28;20194;-70
2023/03/03 12:00:47;;;;;;;37.90;18.10;;;;;10.50;96513.00;;;;8401563;28;20579;-70
2023/03/03 12:05:01;;;;;;;37.80;17.67;;;;;10.40;96509.00;;;;8401871;28;20196;-70
2023/03/03 12:09:14;;;;;;;38.80;17.13;;;;;10.30;96502.00;;;;8401722;28;20185;-70
2023/03/03 12:13:28;;;;;;;41.15;17.67;;;;;10.50;96516.00;;;;8400575;28;20235;-69
2023/03/03 12:17:52;;;;;;;34.58;17.02;;;;;10.40;96504.00;;;;8380634;28;20254;-71
2023/03/03 12:22:07;;;;;;;40.97;17.03;;;;;10.50;96504.00;;;;8401956;28;20191;-71
2023/03/03 12:26:16;;;;;;;35.50;16.20;;;;;10.60;96503.00;;;;8399648;28;20562;-71
2023/03/03 12:30:27;;;;;;;34.70;16.15;;;;;10.60;96500.00;;;;8399276;28;20200;-71
2023/03/03 12:34:44;;;;;;;35.60;16.85;;;;;10.60;96490.00;;;;8399661;28;20274;-71
2023/03/03 12:38:56;;;;;;;36.80;16.95;;;;;10.60;96479.00;;;;8400814;28;20188;-71
2023/03/03 12:43:16;;;;;;;36.45;16.65;;;;;10.70;96474.00;;;;8400424;28;20210;-71
2023/03/03 12:47:30;;;;;;;35.17;16.83;;;;;10.60;96470.00;;;;8400880;28;20287;-71
2023/03/03 12:51:42;;;;;;;34.83;15.95;;;;;10.60;96468.00;;;;8400587;28;20257;-71
2023/03/03 12:55:52;;;;;;;32.00;15.70;;;;;10.60;96458.00;;;;8401154;28;20740;-71
2023/03/03 13:00:21;;;;;;;32.53;15.32;;;;;10.90;96465.00;;;;8400511;28;20193;-71
2023/03/03 13:04:37;;;;;;;33.88;15.65;;;;;11.10;96461.00;;;;8398859;28;20255;-71
2023/03/03 13:08:53;;;;;;;35.78;17.63;;;;;11.10;96452.00;;;;8400556;28;20206;-71
2023/03/03 13:13:06;;;;;;;35.63;17.33;;;;;11.10;96454.00;;;;8401215;28;20553;-71
2023/03/03 13:17:19;;;;;;;36.40;16.58;;;;;11.20;96453.00;;;;8399125;28;20641;-71
2023/03/03 13:21:28;;;;;;;41.72;15.63;;;;;11.20;96453.00;;;;8396525;28;20198;-71
2023/03/03 13:25:46;;;;;;;32.22;15.35;;;;;11.10;96458.00;;;;8399738;28;20260;-72
2023/03/03 13:29:57;;;;;;;34.63;14.30;;;;;11.20;96449.00;;;;8398533;28;20283;-71
2023/03/03 13:34:03;;;;;;;34.60;14.80;;;;;11.40;96454.00;;;;8398291;28;20231;-71
2023/03/03 13:38:14;;;;;;;31.48;14.18;;;;;11.50;96460.00;;;;8398574;28;20217;-71
2023/03/03 13:42:27;;;;;;;31.05;14.73;;;;;11.50;96457.00;;;;8396762;28;20245;-71
2023/03/03 13:46:42;;;;;;;33.83;14.60;;;;;11.60;96456.00;;;;8382251;28;20274;-71
2023/03/03 13:50:51;;;;;;;31.20;15.13;;;;;11.70;96463.00;;;;8398480;28;20634;-71
2023/03/03 13:55:14;;;;;;;34.55;15.27;;;;;11.60;96455.00;;;;8397064;28;20220;-71
2023/03/03 13:59:27;;;;;;;26.15;13.35;;;;;11.60;96449.00;;;;8398603;28;20197;-70
2023/03/03 14:03:48;;;;;;;25.58;13.25;;;;;11.60;96447.00;;;;8398780;28;20227;-71
2023/03/03 14:07:58;;;;;;;34.08;16.17;;;;;11.70;96440.00;;;;8394950;28;20286;-70
2023/03/03 14:12:13;;;;;;;30.10;14.18;;;;;11.70;96439.00;;;;8397801;28;20539;-70
2023/03/03 14:16:22;;;;;;;30.85;12.98;;;;;11.80;96435.00;;;;8397240;28;20309;-69
2023/03/03 14:20:30;;;;;;;29.77;15.45;;;;;12.00;96438.00;;;;8397017;28;20202;-70
2023/03/03 14:25:00;;;;;;;26.23;14.25;;;;;12.20;96442.00;;;;8390466;28;20189;-70
2023/03/03 14:29:20;;;;;;;23.67;12.98;;;;;12.30;96433.00;;;;8397948;28;20632;-70
2023/03/03 14:33:29;;;;;;;27.98;13.02;;;;;12.40;96438.00;;;;8397252;28;20530;-70
2023/03/03 14:37:50;;;;;;;26.80;13.00;;;;;12.50;96432.00;;;;8397868;28;20200;-70
2023/03/03 14:41:58;;;;;;;30.00;12.57;;;;;12.50;96433.00;;;;8397013;28;20663;-70
2023/03/03 14:46:29;;;;;;;25.33;12.82;;;;;12.50;96421.00;;;;8399241;28;20242;-69
2023/03/03 14:50:38;;;;;;;27.27;13.55;;;;;12.40;96422.00;;;;8402839;28;20198;-70
2023/03/03 14:54:49;;;;;;;25.08;12.77;;;;;12.40;96423.00;;;;8400896;28;20223;-70
2023/03/03 14:58:55;;;;;;;27.55;13.30;;;;;12.40;96422.00;;;;8404725;28;20203;-70
2023/03/03 15:03:07;;;;;;;26.40;12.77;;;;;12.50;96416.00;;;;8400747;28;20222;-70
2023/03/03 15:07:32;;;;;;;28.08;14.15;;;;;12.30;96417.00;;;;8400496;28;20280;-70
2023/03/03 15:11:36;;;;;;;26.10;12.82;;;;;12.30;96407.00;;;;8403017;28;20690;-69
2023/03/03 15:15:53;;;;;;;24.85;12.57;;;;;12.40;96414.00;;;;8402604;28;20230;-70
2023/03/03 15:20:24;;;;;;;28.77;12.77;;;;;12.40;96408.00;;;;8401474;28;20210;-70
2023/03/03 15:24:37;;;;;;;22.77;10.93;;;;;12.30;96408.00;;;;8399506;28;20201;-69
2023/03/03 15:28:58;;;;;;;23.30;11.63;;;;;12.30;96403.00;;;;8402259;28;20210;-69
2023/03/03 15:33:19;;;;;;;25.02;12.13;;;;;12.20;96405.00;;;;8398440;28;20202;-70
2023/03/03 15:37:41;;;;;;;33.20;11.82;;;;;12.30;96407.00;;;;8402212;28;20231;-69
2023/03/03 15:41:47;;;;;;;29.88;13.15;;;;;12.20;96411.00;;;;8398884;28;20276;-69
2023/03/03 15:46:14;;;;;;;33.05;13.35;;;;;12.10;96414.00;;;;8401807;28;20188;-70
2023/03/03 15:50:31;;;;;;;24.83;12.95;;;;;12.00;96410.00;;;;8400248;28;20218;-70
2023/03/03 15:54:43;;;;;;;30.45;13.43;;;;;11.80;96412.00;;;;8402503;28;20214;-70
2023/03/03 15:59:15;;;;;;;27.35;13.65;;;;;11.70;96411.00;;;;8400919;28;20501;-70
2023/03/03 16:03:26;;;;;;;33.85;12.95;;;;;11.60;96413.00;;;;8353425;28;20693;-70
2023/03/03 16:07:41;;;;;;;33.38;14.13;;;;;11.50;96412.00;;;;8401139;28;20209;-70
2023/03/03 16:11:50;;;;;;;28.40;13.15;;;;;11.40;96418.00;;;;8397811;28;20346;-70
2023/03/03 16:16:02;;;;;;;40.25;17.75;;;;;11.30;96415.00;;;;8400838;28;20225;-70
2023/03/03 16:20:19;;;;;;;29.08;13.90;;;;;11.20;96420.00;;;;8401025;28;20589;-70
2023/03/03 16:24:37;;;;;;;27.27;13.45;;;;;11.00;96431.00;;;;8400712;28;20185;-70
2023/03/03 16:29:02;;;;;;;28.63;13.77;;;;;10.70;96441.00;;;;8401554;28;20193;-70
2023/03/03 16:33:17;;;;;;;29.52;12.93;;;;;10.50;96444.00;;;;8400405;28;20610;-68
2023/03/03 16:37:28;;;;;;;27.60;12.68;;;;;10.20;96445.00;;;;8401063;28;20222;-68
2023/03/03 16:41:43;;;;;;;28.38;13.20;;;;;9.90;96452.00;;;;8381527;28;20638;-68
2023/03/03 16:45:49;;;;;;;27.02;13.68;;;;;9.70;96455.00;;;;8400458;28;20203;-68
2023/03/03 16:50:01;;;;;;;35.38;16.25;;;;;9.50;96455.00;;;;8400010;28;20661;-68
2023/03/03 16:54:11;;;;;;;33.67;15.47;;;;;9.30;96465.00;;;;8400045;28;20192;-69
2023/03/03 16:58:29;;;;;;;31.90;14.67;;;;;9.10;96463.00;;;;8381829;28;20211;-69
2023/03/03 17:02:52;;;;;;;30.38;13.23;;;;;8.90;96457.00;;;;8400448;28;20227;-69
2023/03/03 17:07:01;;;;;;;30.98;14.73;;;;;8.60;96468.00;;;;8400509;28;20705;-72
2023/03/03 17:11:15;;;;;;;32.47;14.80;;;;;8.40;96474.00;;;;8399341;28;20200;-70
2023/03/03 17:15:33;;;;;;;32.87;14.10;;;;;8.20;96472.00;;;;8399121;28;20212;-70
2023/03/03 17:20:01;;;;;;;32.60;15.07;;;;;8.00;96473.00;;;;8399372;28;20568;-70
2023/03/03 17:24:17;;;;;;;45.53;20.55;;;;;7.70;96479.00;;;;8399732;28;20199;-70
2023/03/03 17:28:35;;;;;;;98.27;33.30;;;;;7.40;96491.00;;;;8399079;28;20267;-70
2023/03/03 17:32:56;;;;;;;55.17;23.27;;;;;7.30;96500.00;;;;8399566;28;20271;-70
2023/03/03 17:37:13;;;;;;;31.80;15.40;;;;;7.10;96492.00;;;;8382101;28;20220;-71
2023/03/03 17:41:25;;;;;;;37.07;16.93;;;;;6.90;96503.00;;;;8398865;28;20188;-71
2023/03/03 17:45:34;;;;;;;43.17;18.70;;;;;6.80;96501.00;;;;8398192;28;20200;-72
2023/03/03 17:50:01;;;;;;;37.33;15.83;;;;;6.90;96508.00;;;;8380749;28;20385;-71
2023/03/03 17:54:22;;;;;;;39.73;16.43;;;;;6.80;96511.00;;;;8398788;28;20283;-69
2023/03/03 17:58:43;;;;;;;40.80;16.13;;;;;7.10;96514.00;;;;8398421;28;20195;-69
2023/03/03 18:03:05;;;;;;;28.37;14.33;;;;;7.20;96523.00;;;;8380577;28;20625;-69
2023/03/03 18:07:40;;;;;;;38.03;14.33;;;;;7.30;96517.00;;;;8397229;28;20188;-69
2023/03/03 18:12:01;;;;;;;39.43;15.27;;;;;7.20;96529.00;;;;8395505;28;20204;-69
2023/03/03 18:16:18;;;;;;;31.43;13.77;;;;;7.00;96527.00;;;;8397233;28;20229;-69
2023/03/03 18:20:38;;;;;;;42.03;18.07;;;;;7.00;96535.00;;;;8397595;28;20194;-69
2023/03/03 18:25:00;;;;;;;41.07;16.93;;;;;7.00;96533.00;;;;8380398;28;20203;-69
2023/03/03 18:29:25;;;;;;;31.70;14.37;;;;;6.90;96539.00;;;;8398291;28;20563;-69
2023/03/03 18:33:40;;;;;;;36.53;14.53;;;;;6.90;96545.00;;;;8396407;28;20537;-69
2023/03/03 18:37:44;;;;;;;24.33;10.83;;;;;6.80;96548.00;;;;8397931;28;20269;-69
2023/03/03 18:42:11;;;;;;;22.93;11.13;;;;;6.70;96551.00;;;;8397949;28;20222;-69
2023/03/03 18:46:58;;;;;;;27.23;11.20;;;;;6.70;96553.00;;;;8395660;28;20196;-67
2023/03/03 18:51:02;;;;;;;25.33;11.10;;;;;6.70;96558.00;;;;8321023;28;20196;-68
2023/03/03 18:55:26;;;;;;;29.23;12.27;;;;;6.60;96549.00;;;;8397240;28;20266;-68
2023/03/03 18:59:47;;;;;;;24.00;10.43;;;;;6.50;96559.00;;;;8396930;28;20183;-68
2023/03/03 19:04:15;;;;;;;28.03;12.27;;;;;6.40;96557.00;;;;8391791;28;20281;-68
2023/03/03 19:08:23;;;;;;;29.97;10.13;;;;;6.40;96560.00;;;;8395024;28;20701;-68
2023/03/03 19:12:55;;;;;;;19.10;9.13;;;;;6.30;96560.00;;;;8395990;28;20541;-68
2023/03/03 19:17:20;;;;;;;18.00;8.33;;;;;6.30;96560.00;;;;8322236;28;20220;-69
2023/03/03 19:21:29;;;;;;;30.33;11.53;;;;;6.20;96569.00;;;;8395704;28;20207;-68
2023/03/03 19:25:34;;;;;;;41.70;16.27;;;;;6.10;96566.00;;;;8395276;28;20329;-68
2023/03/03 19:30:06;;;;;;;32.27;12.67;;;;;5.90;96570.00;;;;8396154;28;20250;-68
2023/03/03 19:34:16;;;;;;;25.37;11.10;;;;;5.70;96565.00;;;;8402375;28;20576;-68
2023/03/03 19:38:36;;;;;;;24.57;11.43;;;;;5.50;96570.00;;;;8402020;28;20224;-68
2023/03/03 19:42:46;;;;;;;257.00;119.17;;;;;5.30;96555.00;;;;8402446;28;20288;-68
2023/03/03 19:46:57;;;;;;;1999.90;985.77;;;;;5.00;96557.00;;;;8402366;28;20192;-68
2023/03/03 19:51:13;;;;;;;148.30;90.03;;;;;4.90;96564.00;;;;8384904;28;20196;-68
2023/03/03 19:55:25;;;;;;;58.47;27.80;;;;;4.60;96573.00;;;;8401988;28;20227;-68
2023/03/03 19:59:36;;;;;;;36.53;18.53;;;;;4.50;96579.00;;;;8400527;28;20671;-69
2023/03/03 20:04:03;;;;;;;29.83;15.37;;;;;4.20;96579.00;;;;8402438;28;20220;-68
2023/03/03 20:08:14;;;;;;;32.90;12.93;;;;;4.10;96578.00;;;;8398964;28;20238;-68
2023/03/03 20:12:52;;;;;;;26.67;12.83;;;;;3.90;96584.00;;;;8402295;28;20205;-68
2023/03/03 20:16:59;;;;;;;22.87;10.73;;;;;3.70;96576.00;;;;8396192;28;20280;-68
2023/03/03 20:21:14;;;;;;;25.60;10.87;;;;;3.50;96581.00;;;;8384166;28;20522;-68
2023/03/03 20:25:30;;;;;;;23.73;10.90;;;;;3.30;96579.00;;;;8401672;28;20234;-68
2023/03/03 20:30:02;;;;;;;26.03;11.77;;;;;3.20;96596.00;;;;8401119;28;20191;-68
2023/03/03 20:34:27;;;;;;;22.50;9.40;;;;;3.10;96581.00;;;;8401869;28;20222;-68
2023/03/03 20:38:44;;;;;;;19.50;8.13;;;;;3.10;96585.00;;;;8399699;28;20222;-68
2023/03/03 20:43:01;;;;;;;12.43;5.90;;;;;3.20;96590.00;;;;8400754;28;20190;-68